Αναφορές METAR Αεροδρομίων

 

LGTS - THESSALONIKI - GREECE
Ενημερώθηκε: 20/06/2018 15:50
Μερικώς νεφελώδης
Μερικώς νεφελώδης
 Ανεμος από ΝΝΔ
Ανεμος: ΝΝΔ 11 km/h
Θερμοκρασία: 31°C
Σημείο Δρόσου: 11°C
Υγρασία: 29%
Βαρόμετρο: 1016 hPa
Clouds: Μερικώς νεφελώδης
Visibility: 10 km
Cloud details: Μερικώς νεφελώδης 762 m
2018/06/20 12:50 LGTS 201250Z 21006KT 9999 SCT025 31/11 Q1016 NOSIG
LGLR - LARTISA - GREECE
Ενημερώθηκε: 20/06/2018 15:50
Σχεδόν νεφελώδης
Σχεδόν νεφελώδης
 Ανεμος από Α
Ανεμος: Α 17 km/h
Θερμοκρασία: 30°C
Σημείο Δρόσου: 8°C
Υγρασία: 25%
Βαρόμετρο: 1017 hPa
Clouds: Σχεδόν νεφελώδης
Visibility: 10 km
Cloud details: Μερικώς νεφελώδης 914 m
Σχεδόν νεφελώδης 2438 m
2018/06/20 12:50 LGLR 201250Z 09009KT 9999 SCT030 BKN080 30/08 Q1017 RMK SCT180 BLU
 
LGKZ - KOZANI - GREECE
Ενημερώθηκε: 20/06/2018 15:50
Μερικώς νεφελώδης
Μερικώς νεφελώδης
 Ανεμος από ΒΒΔ
Ανεμος: ΒΒΔ 13 km/h
Θερμοκρασία: 25°C
Σημείο Δρόσου: 10°C
Υγρασία: 39%
Βαρόμετρο: 1020 hPa
Clouds: Μερικώς νεφελώδης
Visibility: 10 km
Cloud details: Αραιές Νεφώσεις 762 m
Μερικώς νεφελώδης 2134 m
2018/06/20 12:50 LGKZ 201250Z 34007KT 9999 FEW025 SCT070 25/10 Q1020
LGKV - KAVALA - GREECE
Ενημερώθηκε: 20/06/2018 15:50
Αραιές Νεφώσεις
Αραιές Νεφώσεις
 Ανεμος από ΑΒΑ
Ανεμος: ΑΒΑ 28 km/h
Θερμοκρασία: 33°C
Σημείο Δρόσου: 9°C
Υγρασία: 23%
Βαρόμετρο: 1015 hPa
Clouds: Αραιές Νεφώσεις
Visibility: 10 km
Cloud details: Αραιές Νεφώσεις 1067 m
2018/06/20 12:50 LGKV 201250Z 06015KT 9999 FEW035 33/09 Q1015
 
LGIO - IOANNINA - GREECE
Ενημερώθηκε: 20/06/2018 14:50
Σχεδόν νεφελώδης
Σχεδόν νεφελώδης
 Ανεμος από varies
Ανεμος: varies 0 km/h
Θερμοκρασία: 26°C
Σημείο Δρόσου: 14°C
Υγρασία: 48%
Βαρόμετρο: 1018 hPa
Clouds: Σχεδόν νεφελώδης
Visibility: 10 km
Cloud details: Μερικώς νεφελώδης 1067 m
Σχεδόν νεφελώδης 2438 m
2018/06/20 11:50 LGIO 201150Z /////KT 9999 SCT035 BKN080 26/14 Q1018
LGBL - BOLOS - GREECE
Ενημερώθηκε: 20/06/2018 15:50
Μερικώς νεφελώδης
Μερικώς νεφελώδης
 Ανεμος από Α
Ανεμος: Α 7 km/h
Θερμοκρασία: 31°C
Σημείο Δρόσου: 9°C
Υγρασία: 25%
Βαρόμετρο: 1016 hPa
Clouds: Μερικώς νεφελώδης
Visibility: 10 km
Cloud details: Αραιές Νεφώσεις 762 m
Μερικώς νεφελώδης 2438 m
2018/06/20 12:50 LGBL 201250Z 09004KT 9999 FEW025 SCT080 31/09 Q1016
 
LGMT - MITILINI - GREECE
Ενημερώθηκε: 20/06/2018 15:50
Μερικώς νεφελώδης
Μερικώς νεφελώδης
 Ανεμος από ΒΒΔ
Ανεμος: ΒΒΔ 11 km/h
Θερμοκρασία: 27°C
Heat Index: 28°C
Σημείο Δρόσου: 18°C
Υγρασία: 58%
Βαρόμετρο: 1014 hPa
Clouds: Μερικώς νεφελώδης
Visibility: 10 km
Cloud details: Αραιές Νεφώσεις 610 m
Μερικώς νεφελώδης 762 m
2018/06/20 12:50 LGMT 201250Z 34006KT 9999 FEW020 SCT025 27/18 Q1014
LGAV - ATHENS - GREECE
Ενημερώθηκε: 20/06/2018 15:50
Αραιές Νεφώσεις
Αραιές Νεφώσεις
 Ανεμος από ΒΑ
Ανεμος: ΒΑ 31 km/h
Θερμοκρασία: 30°C
Σημείο Δρόσου: 8°C
Υγρασία: 25%
Βαρόμετρο: 1015 hPa
Clouds: Αραιές Νεφώσεις
Visibility: 10 km
Cloud details: Αραιές Νεφώσεις 914 m
2018/06/20 12:50 LGAV 201250Z 04017KT 9999 FEW030 30/08 Q1015 NOSIG
 
LGRP - RODOS - GREECE
Ενημερώθηκε: 20/06/2018 15:50
Αραιές Νεφώσεις
Αραιές Νεφώσεις
 Ανεμος από Δ
Ανεμος: Δ 24 km/h
Θερμοκρασία: 27°C
Heat Index: 31°C
Σημείο Δρόσου: 24°C
Υγρασία: 84%
Βαρόμετρο: 1012 hPa
Clouds: Αραιές Νεφώσεις
Visibility: 10 km
Cloud details: Αραιές Νεφώσεις 549 m
2018/06/20 12:50 LGRP 201250Z 26013KT 9999 FEW018TCU 27/24 Q1012 NOSIG
LGIR - HRAKLIO/KRITI - GREECE
Ενημερώθηκε: 20/06/2018 15:50
Thunderstorm, Μερικώς νεφελώδης
Thunderstorm, Μερικώς νεφελώδης
 Ανεμος από ΒΒΔ
Ανεμος: ΒΒΔ 17 km/h
Θερμοκρασία: 26°C
Σημείο Δρόσου: 22°C
Υγρασία: 79%
Βαρόμετρο: 1014 hPa
Περίληψη: Thunderstorm
Clouds: Μερικώς νεφελώδης
Visibility: 10 km
Cloud details: Αραιές Νεφώσεις 549 m
Μερικώς νεφελώδης 762 m
2018/06/20 12:50 LGIR 201250Z 33009KT 9999 TS FEW018CB SCT025 26/22 Q1014 BECMG 5000 TSRA
 
LGMK - MIKONOS - GREECE
Ενημερώθηκε: 20/06/2018 15:50
Αραιές Νεφώσεις
Αραιές Νεφώσεις
 Ανεμος από Β
Ανεμος: Β 20 km/h
Θερμοκρασία: 25°C
Σημείο Δρόσου: 18°C
Υγρασία: 65%
Βαρόμετρο: 1014 hPa
Clouds: Αραιές Νεφώσεις
Visibility: 10 km
Cloud details: Αραιές Νεφώσεις 305 m
2018/06/20 12:50 LGMK 201250Z 35011KT 9999 FEW010 25/18 Q1014
LGKR - KERKIRA - GREECE
Ενημερώθηκε: 20/06/2018 15:50
Μερικώς νεφελώδης
Μερικώς νεφελώδης
 Ανεμος από ΝΝΑ
Ανεμος: ΝΝΑ 13 km/h
Θερμοκρασία: 33°C
Heat Index: 37°C
Σημείο Δρόσου: 22°C
Υγρασία: 52%
Βαρόμετρο: 1015 hPa
Clouds: Μερικώς νεφελώδης
Visibility: 10 km
Cloud details: Μερικώς νεφελώδης 762 m
Μερικώς νεφελώδης 2134 m
2018/06/20 12:50 LGKR 201250Z 15007KT 9999 SCT025 SCT070 33/22 Q1015 NOSIG